createdAt,value
2017-12-09T00:02:45.579Z,99.90
2017-12-09T00:05:56.038Z,99.90
2017-12-09T00:09:05.711Z,99.90
2017-12-09T00:12:16.260Z,99.90
2017-12-09T00:15:26.310Z,99.90
2017-12-09T00:18:36.368Z,99.90
2017-12-09T00:21:47.384Z,99.90
2017-12-09T00:24:57.247Z,99.90
2017-12-09T00:28:07.218Z,99.90
2017-12-09T00:31:18.301Z,99.90
2017-12-09T00:34:28.224Z,99.90
2017-12-09T00:37:37.995Z,99.90
2017-12-09T00:40:47.977Z,99.90
2017-12-09T00:43:59.061Z,99.90
2017-12-09T00:47:08.910Z,99.90
2017-12-09T00:50:19.027Z,99.90
2017-12-09T00:53:28.783Z,99.90
2017-12-09T00:56:38.510Z,99.90
2017-12-09T00:59:48.823Z,99.90
2017-12-09T01:02:59.197Z,99.90
2017-12-09T01:06:09.098Z,99.90
2017-12-09T01:09:19.843Z,99.90
2017-12-09T01:12:29.794Z,99.90
2017-12-09T01:15:51.632Z,99.90
2017-12-09T01:19:01.109Z,99.90
2017-12-09T01:22:11.211Z,99.90
2017-12-09T01:25:22.656Z,99.90
2017-12-09T01:28:33.527Z,99.90
2017-12-09T01:31:44.518Z,99.90
2017-12-09T01:34:55.947Z,99.90
2017-12-09T01:38:06.543Z,99.90
2017-12-09T01:41:17.692Z,99.90
2017-12-09T01:44:27.829Z,99.90
2017-12-09T01:47:37.737Z,99.90
2017-12-09T01:50:47.147Z,99.90
2017-12-09T01:53:56.948Z,99.90
2017-12-09T01:57:07.023Z,99.70
2017-12-09T02:00:17.128Z,99.90
2017-12-09T02:03:27.129Z,99.50
2017-12-09T02:06:37.680Z,99.70
2017-12-09T02:09:48.128Z,99.70
2017-12-09T02:12:57.861Z,99.50
2017-12-09T02:16:07.906Z,99.40
2017-12-09T02:19:17.547Z,99.30
2017-12-09T02:22:27.742Z,99.50
2017-12-09T02:25:37.741Z,99.00
2017-12-09T02:28:47.614Z,98.60
2017-12-09T02:31:57.498Z,98.40
2017-12-09T02:35:07.398Z,98.40
2017-12-09T02:38:17.813Z,98.80
2017-12-09T02:41:28.123Z,98.80
2017-12-09T02:44:38.018Z,98.10
2017-12-09T02:47:48.165Z,97.90
2017-12-09T02:50:58.096Z,97.70
2017-12-09T02:54:08.840Z,97.60
2017-12-09T02:57:19.770Z,97.80
2017-12-09T03:00:29.998Z,97.80
2017-12-09T03:03:39.611Z,97.20
2017-12-09T03:06:49.406Z,98.00
2017-12-09T03:09:59.090Z,97.70
2017-12-09T03:13:08.823Z,97.70
2017-12-09T03:16:18.773Z,97.70
2017-12-09T03:19:29.159Z,97.40
2017-12-09T03:22:39.080Z,97.40
2017-12-09T03:25:48.793Z,97.90
2017-12-09T03:28:58.513Z,97.60
2017-12-09T03:32:09.300Z,97.80
2017-12-09T03:35:19.191Z,97.80
2017-12-09T03:38:28.771Z,98.30
2017-12-09T03:41:38.688Z,99.10
2017-12-09T03:44:48.641Z,99.80
2017-12-09T03:47:58.518Z,99.90
2017-12-09T03:51:09.536Z,99.90
2017-12-09T03:54:19.727Z,99.90
2017-12-09T03:57:29.994Z,99.90
2017-12-09T04:00:39.982Z,99.90
2017-12-09T04:03:49.929Z,99.90
2017-12-09T04:06:59.549Z,99.90
2017-12-09T04:10:08.979Z,99.90
2017-12-09T04:13:19.107Z,99.90
2017-12-09T04:16:29.442Z,99.90
2017-12-09T04:19:38.959Z,99.90
2017-12-09T04:22:48.681Z,99.90
2017-12-09T04:25:57.915Z,99.90
2017-12-09T04:29:08.856Z,99.90
2017-12-09T04:32:18.343Z,99.90
2017-12-09T04:35:28.582Z,99.90
2017-12-09T04:38:38.690Z,99.90
2017-12-09T04:41:49.421Z,99.90
2017-12-09T04:44:59.695Z,99.90
2017-12-09T04:48:10.357Z,99.90
2017-12-09T04:51:19.705Z,99.90
2017-12-09T04:54:29.516Z,99.90
2017-12-09T04:57:39.451Z,99.90
2017-12-09T05:00:49.584Z,99.90
2017-12-09T05:03:59.821Z,99.90
2017-12-09T05:10:25.428Z,99.90
2017-12-09T05:13:35.150Z,99.90
2017-12-09T05:16:45.267Z,99.90
2017-12-09T05:19:54.704Z,99.90
2017-12-09T05:23:05.315Z,99.90
2017-12-09T05:26:15.848Z,99.90
2017-12-09T05:29:25.586Z,99.90
2017-12-09T05:32:35.240Z,99.90
2017-12-09T05:35:45.807Z,99.90
2017-12-09T05:38:56.246Z,99.90
2017-12-09T05:42:07.144Z,99.90
2017-12-09T05:45:17.831Z,99.90
2017-12-09T05:48:27.816Z,99.90
2017-12-09T05:51:37.761Z,99.90
2017-12-09T05:54:47.290Z,99.90
2017-12-09T05:57:57.323Z,99.90
2017-12-09T06:01:07.330Z,99.90
2017-12-09T06:04:17.992Z,99.90
2017-12-09T06:07:27.594Z,99.90
2017-12-09T06:10:38.412Z,99.90
2017-12-09T06:13:49.202Z,99.90
2017-12-09T06:16:59.527Z,99.90
2017-12-09T06:20:10.046Z,99.90
2017-12-09T06:23:19.716Z,99.90
2017-12-09T06:26:30.412Z,99.90
2017-12-09T06:29:40.426Z,99.90
2017-12-09T06:32:50.525Z,99.90
2017-12-09T06:36:00.541Z,99.90
2017-12-09T06:39:10.344Z,99.90
2017-12-09T06:42:20.291Z,99.90
2017-12-09T06:45:30.174Z,99.90
2017-12-09T06:48:39.643Z,99.90
2017-12-09T06:51:50.179Z,99.90
2017-12-09T06:54:59.753Z,99.90
2017-12-09T06:58:09.591Z,99.90
2017-12-09T07:01:19.439Z,99.90
2017-12-09T07:04:29.326Z,99.90
2017-12-09T07:07:40.466Z,99.90
2017-12-09T07:10:50.424Z,99.90
2017-12-09T07:14:00.918Z,99.90
2017-12-09T07:17:11.228Z,99.90
2017-12-09T07:20:20.890Z,99.90
2017-12-09T07:23:30.578Z,99.90
2017-12-09T07:26:40.700Z,99.90
2017-12-09T07:29:51.420Z,99.90
2017-12-09T07:33:01.165Z,99.90
2017-12-09T07:36:10.663Z,99.90
2017-12-09T07:39:21.214Z,99.90
2017-12-09T07:42:32.117Z,99.90
2017-12-09T07:45:43.220Z,99.90
2017-12-09T07:48:52.818Z,99.90
2017-12-09T07:52:02.562Z,99.90
2017-12-09T07:55:13.193Z,99.90
2017-12-09T07:58:23.506Z,99.90
2017-12-09T08:01:33.360Z,99.90
2017-12-09T08:04:44.151Z,99.90
2017-12-09T08:07:54.025Z,99.90
2017-12-09T08:11:04.006Z,99.90
2017-12-09T08:14:14.802Z,99.90
2017-12-09T08:17:24.930Z,99.90
2017-12-09T08:20:35.130Z,99.90
2017-12-09T08:23:45.198Z,99.90
2017-12-09T08:26:55.074Z,99.90
2017-12-09T08:30:04.795Z,99.90
2017-12-09T08:33:15.566Z,99.90
2017-12-09T08:36:27.390Z,99.90
2017-12-09T08:39:37.989Z,99.50
2017-12-09T08:42:48.241Z,99.70
2017-12-09T08:45:57.951Z,99.70
2017-12-09T08:49:07.656Z,99.40
2017-12-09T08:52:17.894Z,99.30
2017-12-09T08:55:28.377Z,99.20
2017-12-09T08:58:38.161Z,99.20
2017-12-09T09:01:48.305Z,99.30
2017-12-09T09:04:59.022Z,98.70
2017-12-09T09:08:09.578Z,98.70
2017-12-09T09:11:19.713Z,99.00
2017-12-09T09:14:29.722Z,98.70
2017-12-09T09:17:39.992Z,97.90
2017-12-09T09:20:49.731Z,97.80
2017-12-09T09:23:59.628Z,98.30
2017-12-09T09:27:09.247Z,98.10
2017-12-09T09:30:19.958Z,97.80
2017-12-09T09:33:31.110Z,98.20
2017-12-09T09:36:41.491Z,98.20
2017-12-09T09:39:51.493Z,97.90
2017-12-09T09:43:01.472Z,98.00
2017-12-09T09:46:11.099Z,98.60
2017-12-09T09:49:21.608Z,99.10
2017-12-09T09:52:31.788Z,99.30
2017-12-09T09:55:41.765Z,99.70
2017-12-09T09:58:51.354Z,99.70
2017-12-09T10:02:02.039Z,99.50
2017-12-09T10:05:11.804Z,99.40
2017-12-09T10:08:21.378Z,99.60
2017-12-09T10:11:31.370Z,98.90
2017-12-09T10:14:41.259Z,99.00
2017-12-09T10:17:51.286Z,98.60
2017-12-09T10:21:01.285Z,98.10
2017-12-09T10:24:11.044Z,97.50
2017-12-09T10:27:20.610Z,97.60
2017-12-09T10:30:30.330Z,97.50
2017-12-09T10:33:39.872Z,96.90
2017-12-09T10:36:49.550Z,96.90
2017-12-09T10:40:00.272Z,96.10
2017-12-09T10:43:10.296Z,96.10
2017-12-09T10:46:20.094Z,96.80
2017-12-09T10:49:29.991Z,95.80
2017-12-09T10:52:40.279Z,95.50
2017-12-09T10:55:49.862Z,96.00
2017-12-09T10:58:59.641Z,96.00
2017-12-09T11:02:09.747Z,96.50
2017-12-09T11:05:20.431Z,97.50
2017-12-09T11:08:31.287Z,98.00
2017-12-09T11:11:42.095Z,98.70
2017-12-09T11:14:52.305Z,98.70
2017-12-09T11:18:02.058Z,99.80
2017-12-09T11:21:12.356Z,99.90
2017-12-09T11:24:22.195Z,99.90
2017-12-09T11:27:32.239Z,99.90
2017-12-09T11:30:42.484Z,99.90
2017-12-09T11:33:52.431Z,99.90
2017-12-09T11:37:02.561Z,99.90
2017-12-09T11:40:12.777Z,99.90
2017-12-09T11:43:22.703Z,99.90
2017-12-09T11:46:33.616Z,99.90
2017-12-09T11:49:44.526Z,99.90
2017-12-09T11:52:54.620Z,99.90
2017-12-09T11:56:04.497Z,99.90
2017-12-09T11:59:15.405Z,99.90
2017-12-09T12:02:26.133Z,99.90
2017-12-09T12:05:36.680Z,99.90
2017-12-09T12:08:46.211Z,99.90
2017-12-09T12:11:57.085Z,99.90
2017-12-09T12:15:08.154Z,99.90
2017-12-09T12:18:18.808Z,99.90
2017-12-09T12:21:28.610Z,99.90
2017-12-09T12:24:39.385Z,99.90
2017-12-09T12:27:49.844Z,99.90
2017-12-09T12:30:59.450Z,99.90
2017-12-09T12:34:10.004Z,99.90
2017-12-09T12:37:20.918Z,99.90
2017-12-09T12:40:30.430Z,99.90
2017-12-09T12:43:41.404Z,99.90
2017-12-09T12:46:52.296Z,99.90
2017-12-09T12:50:02.549Z,99.90
2017-12-09T12:53:12.496Z,99.90
2017-12-09T12:56:23.327Z,99.90
2017-12-09T12:59:33.519Z,99.90
2017-12-09T13:02:44.209Z,99.90
2017-12-09T13:05:54.212Z,99.90
2017-12-09T13:09:03.705Z,99.90
2017-12-09T13:12:14.250Z,99.90
2017-12-09T13:15:23.934Z,99.90
2017-12-09T13:18:33.800Z,99.90
2017-12-09T13:21:44.050Z,99.90
2017-12-09T13:24:54.593Z,99.90
2017-12-09T13:28:05.225Z,99.90
2017-12-09T13:31:14.852Z,99.90
2017-12-09T13:34:25.235Z,99.90
2017-12-09T13:37:35.636Z,99.90
2017-12-09T13:40:45.677Z,99.90
2017-12-09T13:43:55.805Z,99.90
2017-12-09T13:47:05.468Z,99.90
2017-12-09T13:50:16.361Z,99.90
2017-12-09T13:53:27.923Z,99.90
2017-12-09T13:56:39.540Z,99.90
2017-12-09T13:59:49.018Z,99.90
2017-12-09T14:02:59.095Z,99.90
2017-12-09T14:06:10.270Z,99.90
2017-12-09T14:09:21.050Z,99.90
2017-12-09T14:12:31.615Z,99.90
2017-12-09T14:15:42.509Z,99.90
2017-12-09T14:18:52.810Z,99.90
2017-12-09T14:22:03.601Z,99.90
2017-12-09T14:25:14.261Z,99.90
2017-12-09T14:28:26.752Z,99.90
2017-12-09T14:31:38.534Z,99.90
2017-12-09T14:34:48.854Z,99.90
2017-12-09T14:37:59.497Z,99.90
2017-12-09T14:41:09.381Z,99.90
2017-12-09T14:44:19.043Z,99.90
2017-12-09T14:47:29.478Z,99.90
2017-12-09T14:50:39.954Z,99.90
2017-12-09T14:53:49.951Z,99.90
2017-12-09T14:56:59.626Z,99.90
2017-12-09T15:00:09.434Z,99.90
2017-12-09T15:03:19.400Z,99.90
2017-12-09T15:06:30.267Z,99.90
2017-12-09T15:09:41.025Z,99.90
2017-12-09T15:12:51.320Z,99.90
2017-12-09T15:16:02.693Z,99.90
2017-12-09T15:19:13.846Z,99.90
2017-12-09T15:22:24.163Z,99.90
2017-12-09T15:25:34.676Z,99.90
2017-12-09T15:28:45.380Z,99.90
2017-12-09T15:31:55.991Z,99.90
2017-12-09T15:35:06.883Z,99.90
2017-12-09T15:38:17.187Z,99.90
2017-12-09T15:41:27.509Z,99.80
2017-12-09T15:44:38.920Z,99.90
2017-12-09T15:47:48.904Z,99.90
2017-12-09T15:50:59.234Z,99.90
2017-12-09T15:54:18.768Z,99.90
2017-12-09T15:57:28.915Z,99.90
2017-12-09T16:00:38.474Z,99.90
2017-12-09T16:03:49.236Z,99.90
2017-12-09T16:06:59.444Z,99.90
2017-12-09T16:10:09.056Z,99.90
2017-12-09T16:13:19.670Z,99.90
2017-12-09T16:16:29.903Z,99.90
2017-12-09T16:19:40.212Z,99.90
2017-12-09T16:22:49.603Z,99.90
2017-12-09T16:25:59.262Z,99.90
2017-12-09T16:29:09.186Z,99.90
2017-12-09T16:32:18.860Z,99.90
2017-12-09T16:35:28.710Z,99.90
2017-12-09T16:38:39.582Z,99.90
2017-12-09T16:41:49.549Z,99.90
2017-12-09T16:44:59.142Z,99.90
2017-12-09T16:48:08.882Z,99.90
2017-12-09T16:51:19.116Z,99.90
2017-12-09T16:54:28.939Z,99.90
2017-12-09T16:57:38.463Z,99.90
2017-12-09T17:00:48.945Z,99.80
2017-12-09T17:03:59.535Z,99.80
2017-12-09T17:07:10.513Z,99.90
2017-12-09T17:10:20.503Z,99.90
2017-12-09T17:13:29.894Z,99.90
2017-12-09T17:16:39.888Z,99.90
2017-12-09T17:19:49.596Z,99.90
2017-12-09T17:23:00.255Z,99.80
2017-12-09T17:26:09.820Z,99.90
2017-12-09T17:29:19.891Z,99.90
2017-12-09T17:32:30.249Z,99.90
2017-12-09T17:35:40.327Z,99.90
2017-12-09T17:38:49.846Z,99.80
2017-12-09T17:41:59.616Z,99.80
2017-12-09T17:45:09.484Z,99.90
2017-12-09T17:48:19.963Z,99.90
2017-12-09T17:51:30.216Z,99.80
2017-12-09T17:54:39.867Z,99.90
2017-12-09T17:57:49.765Z,99.90
2017-12-09T18:00:59.313Z,99.90
2017-12-09T18:04:09.064Z,99.90
2017-12-09T18:07:18.878Z,99.90
2017-12-09T18:10:29.089Z,99.90
2017-12-09T18:13:39.481Z,99.90
2017-12-09T18:16:50.189Z,99.90
2017-12-09T18:20:00.154Z,99.90
2017-12-09T18:23:10.846Z,99.90
2017-12-09T18:26:21.084Z,99.90
2017-12-09T18:29:30.936Z,99.90
2017-12-09T18:32:40.579Z,99.90
2017-12-09T18:35:50.885Z,99.90
2017-12-09T18:39:00.494Z,99.90
2017-12-09T18:42:10.674Z,99.90
2017-12-09T18:45:21.112Z,99.90
2017-12-09T18:48:32.091Z,99.90
2017-12-09T18:51:42.067Z,99.90
2017-12-09T18:54:52.105Z,99.90
2017-12-09T18:58:01.614Z,99.90
2017-12-09T19:01:12.174Z,99.90
2017-12-09T19:04:22.292Z,99.90
2017-12-09T19:07:32.638Z,99.90
2017-12-09T19:10:42.507Z,99.90
2017-12-09T19:13:52.380Z,99.90
2017-12-09T19:17:02.502Z,99.90
2017-12-09T19:20:12.902Z,99.90
2017-12-09T19:23:23.134Z,99.90
2017-12-09T19:26:32.749Z,99.90
2017-12-09T19:29:42.281Z,99.90
2017-12-09T19:32:52.395Z,99.90
2017-12-09T19:36:02.373Z,99.90
2017-12-09T19:39:12.306Z,99.90
2017-12-09T19:42:22.161Z,99.90
2017-12-09T19:45:32.064Z,99.90
2017-12-09T19:48:42.672Z,99.90
2017-12-09T19:51:52.654Z,99.90
2017-12-09T19:55:02.451Z,99.90
2017-12-09T19:58:12.170Z,99.90
2017-12-09T20:01:21.755Z,99.90
2017-12-09T20:04:31.898Z,99.90
2017-12-09T20:07:42.135Z,99.90
2017-12-09T20:10:53.008Z,99.90
2017-12-09T20:14:03.477Z,99.90
2017-12-09T20:17:13.898Z,99.90
2017-12-09T20:20:23.971Z,99.90
2017-12-09T20:23:33.798Z,99.90
2017-12-09T20:26:43.998Z,99.90
2017-12-09T20:29:54.827Z,99.90
2017-12-09T20:33:04.625Z,99.90
2017-12-09T20:36:14.957Z,99.90
2017-12-09T20:39:24.906Z,99.90
2017-12-09T20:42:35.263Z,99.90
2017-12-09T20:45:44.723Z,99.90
2017-12-09T20:48:54.591Z,99.90
2017-12-09T20:52:05.046Z,99.90
2017-12-09T20:55:14.706Z,99.90
2017-12-09T20:58:25.542Z,99.90
2017-12-09T21:01:36.056Z,99.90
2017-12-09T21:04:46.851Z,99.90
2017-12-09T21:07:56.482Z,99.90
2017-12-09T21:11:07.141Z,99.90
2017-12-09T21:14:17.949Z,99.90
2017-12-09T21:17:28.221Z,99.90
2017-12-09T21:20:37.919Z,99.90
2017-12-09T21:23:47.800Z,99.90
2017-12-09T21:26:58.340Z,99.90
2017-12-09T21:30:09.159Z,99.90
2017-12-09T21:33:20.295Z,99.90
2017-12-09T21:36:30.402Z,99.90
2017-12-09T21:39:40.038Z,99.90
2017-12-09T21:42:50.457Z,99.90
2017-12-09T21:45:59.980Z,99.90
2017-12-09T21:49:10.041Z,99.90
2017-12-09T21:52:19.713Z,99.90
2017-12-09T21:55:29.865Z,99.90
2017-12-09T21:58:39.376Z,99.90
2017-12-09T22:01:50.217Z,99.60
2017-12-09T22:05:00.050Z,99.50
2017-12-09T22:08:09.890Z,99.80
2017-12-09T22:11:19.746Z,99.40
2017-12-09T22:14:31.414Z,99.40
2017-12-09T22:17:41.861Z,99.10
2017-12-09T22:20:52.255Z,99.20
2017-12-09T22:24:02.915Z,99.30
2017-12-09T22:27:13.270Z,99.00
2017-12-09T22:30:22.908Z,99.50
2017-12-09T22:33:33.544Z,99.30
2017-12-09T22:40:00.634Z,99.40
2017-12-09T22:43:10.895Z,99.10
2017-12-09T22:46:20.511Z,99.30
2017-12-09T22:49:30.945Z,99.30
2017-12-09T22:52:41.252Z,99.20
2017-12-09T22:55:51.354Z,99.20
2017-12-09T22:59:01.803Z,99.00
2017-12-09T23:02:11.966Z,98.90
2017-12-09T23:05:22.774Z,98.70
2017-12-09T23:08:32.846Z,98.70
2017-12-09T23:11:43.663Z,98.70
2017-12-09T23:14:53.750Z,98.70
2017-12-09T23:18:03.499Z,98.60
2017-12-09T23:21:14.073Z,98.20
2017-12-09T23:24:24.756Z,98.40
2017-12-09T23:27:35.003Z,98.40
2017-12-09T23:30:44.584Z,98.10
2017-12-09T23:33:54.204Z,98.50
2017-12-09T23:37:03.954Z,97.90
2017-12-09T23:40:13.616Z,97.70
2017-12-09T23:43:23.734Z,97.80
2017-12-09T23:46:33.469Z,97.70
2017-12-09T23:49:44.002Z,97.10
2017-12-09T23:52:54.967Z,97.30
2017-12-09T23:56:05.261Z,97.30
2017-12-09T23:59:15.000Z,97.20
